Airfield :
LOGIN :

Register | Disclaimer

   EN    FR    IT 

 










Legend :    VFR   Marginal VFR   IFR   Intensive IFR   Very Intensive IFR
Visi :
Ceiling :
>= 8 km
>= 3000ft
5 to 8 km
1000 to 3000 ft
1500m to 5 km
500 to 1000 ft
800 to 1500m
200 to 500 ft
< 800m
< 200 ft
Symbols :   Thunderstorms  Fog  Heavy snow  Heavy precipitations  Wind > 20 kt
SIGMETs :     Misc.  Thunderstorms  Icing  Turbulence  Mountain Waves  Volcanic Ashes






- Airport Elevation : 31 ft
- IATA code : INV


EGPE - Inverness

CURRENT METAR :
  • 050920Z 24012KT 9999 -SHRA SCT019 BKN034 12/09 Q0995

EXPIRED METARs :
  • 050850Z 24011KT 9999 -RA SCT019 BKN034 12/09 Q0995
  • 050820Z 23010KT 9999 FEW015 SCT022 BKN034 12/09 Q0994
  • 050750Z 23012KT 9999 FEW015 SCT021 BKN034 12/09 Q0994
  • 050720Z 23010KT 9999 FEW015 SCT022 BKN029 11/09 Q0994
  • 050650Z 24003KT 9999 FEW015 SCT022 BKN029 11/09 Q0994
  • 050620Z 25010KT 9999 FEW015 BKN028 11/08 Q0994

TAF TAF EGPE
Valid from the 05 at 09:00 until the 05 at 18:00 UTC


050754Z 0509/0518 24012KT 9999 FEW014CB SCT025
TEMPO 0509/0518 25015G25KT 5000 SHRA
PROB30
TEMPO 0509/0518 3000 +TSRA BKN012CB
ATIS : +44 1667 464 255



MET'MAP, your aeronautical weather chart ! - Copyright ORBIFLY December 2007 - Disclaimer

ORBIFLY MET'MAP TEAM :

Programming & Development : Alexandra Zaïnal
Concept & original design : Baudouin d'Aumeries
Assistance for programming : Marc-Olivier Méhu
Technical & hardware support : Manuel Goepfert

Contact : metmap@orbifly.com




SOURCES & CREDITS :

   NOAA